GMFF/FEZ METAR and TAF weather

Enter ICAO airport designator
Station Type Date Time Source
GMFF METAR 2019/12/12 12:00 UTC NOAA

GMFF 121200Z 31010KT 280V340 9999 SCT013 SCT030 14/09 Q1029 NOSIG


Station Type Date Time Source
GMFF Decoded METAR 2019/12/12 12:00 UTC NOAA

Fes-Sais, Morocco (GMFF) 33-56N 004-59W 579M
Dec 12, 2019 - 07:00 AM EST / 2019.12.12 1200 UTC
Wind: from the NW (310 degrees) at 12 MPH (10 KT) (direction variable):0
Visibility: greater than 7 mile(s):0
Sky conditions: partly cloudy
Temperature: 57 F (14 C)
Dew Point: 48 F (9 C)
Relative Humidity: 71%
Pressure (altimeter): 30.39 in. Hg (1029 hPa)
ob: GMFF 121200Z 31010KT 280V340 9999 SCT013 SCT030 14/09 Q1029 NOSIG
cycle: 12

Station Type Date Time Source
GMFF TAF 2019/12/12 12:42 UTC NOAA

TAF TAF GMFF 121100Z 1212/1318 28010KT 9999 SCT013 BKN030
BECMG 1219/1221 20006KT

Example: see airport list